Okolona, Ohio
Current Conditions -  °F | °C
As of 10:53 PM on Friday 24 Oct 2014 (Local Time) from KDFI Reporting Station
Clear Clear  
Wind Chill: 52°   Ceiling: Unl
Heat Index: 52°   Visibility: 8mi
Dew Point: 47°   Wind: 5mph
Humidity: 83%   Direction: 220°SW
Pressure: 30"   Gusts: NA
Location:  41.36°N, 84.22°W
Report Text: KDFI 250253Z AUTO 22004KT 8SM CLR 11/08 A3000 RMK AO2 SLP160 T01110083 55004
Loading
Personal Weather Stations






























Interactive Weather Map
Tropical Storm Tracking
New forecast layout! Learn more

10-Day Weather Forecast

Advertisements
Track Severe Weather on mobile